sensor_id;sensor_type;location;lat;lon;timestamp;pressure;altitude;pressure_sealevel;temperature;humidity
3178;BME280;38141;42.666;23.344;2023-05-07T00:02:17;94884.38;;;11.25;100.00
3178;BME280;38141;42.666;23.344;2023-05-07T00:04:44;94902.19;;;11.29;100.00
3178;BME280;38141;42.666;23.344;2023-05-07T00:07:11;94904.91;;;11.26;100.00
3178;BME280;38141;42.666;23.344;2023-05-07T00:09:38;94908.69;;;11.10;100.00
3178;BME280;38141;42.666;23.344;2023-05-07T00:12:05;94877.28;;;10.95;100.00
3178;BME280;38141;42.666;23.344;2023-05-07T00:14:32;94907.13;;;11.06;100.00
3178;BME280;38141;42.666;23.344;2023-05-07T00:17:00;94904.41;;;11.02;100.00
3178;BME280;38141;42.666;23.344;2023-05-07T00:19:27;94905.22;;;11.13;100.00
3178;BME280;38141;42.666;23.344;2023-05-07T00:21:55;94898.28;;;11.12;100.00
3178;BME280;38141;42.666;23.344;2023-05-07T00:24:23;94895.13;;;11.03;100.00
3178;BME280;38141;42.666;23.344;2023-05-07T00:26:50;94893.56;;;11.02;100.00
3178;BME280;38141;42.666;23.344;2023-05-07T00:29:18;94894.28;;;10.89;100.00
3178;BME280;38141;42.666;23.344;2023-05-07T00:31:44;94890.75;;;10.81;100.00
3178;BME280;38141;42.666;23.344;2023-05-07T00:34:12;94883.09;;;10.94;100.00
3178;BME280;38141;42.666;23.344;2023-05-07T00:36:39;94891.28;;;11.11;100.00
3178;BME280;38141;42.666;23.344;2023-05-07T00:39:06;94894.72;;;11.05;100.00
3178;BME280;38141;42.666;23.344;2023-05-07T00:41:33;94892.78;;;11.02;100.00
3178;BME280;38141;42.666;23.344;2023-05-07T00:44:00;94903.66;;;11.09;100.00
3178;BME280;38141;42.666;23.344;2023-05-07T00:46:28;94888.50;;;10.94;100.00
3178;BME280;38141;42.666;23.344;2023-05-07T00:48:55;94902.06;;;11.01;100.00
3178;BME280;38141;42.666;23.344;2023-05-07T00:51:24;94900.16;;;11.05;100.00
3178;BME280;38141;42.666;23.344;2023-05-07T00:53:53;94884.88;;;10.65;100.00
3178;BME280;38141;42.666;23.344;2023-05-07T00:56:20;94907.28;;;10.62;100.00
3178;BME280;38141;42.666;23.344;2023-05-07T00:58:47;94907.28;;;10.62;100.00
3178;BME280;38141;42.666;23.344;2023-05-07T01:01:14;94905.28;;;10.59;100.00
3178;BME280;38141;42.666;23.344;2023-05-07T01:03:41;94916.63;;;10.75;100.00
3178;BME280;38141;42.666;23.344;2023-05-07T01:06:09;94913.84;;;10.68;100.00
3178;BME280;38141;42.666;23.344;2023-05-07T01:08:39;94910.00;;;10.65;100.00
3178;BME280;38141;42.666;23.344;2023-05-07T01:11:07;94912.78;;;10.76;100.00
3178;BME280;38141;42.666;23.344;2023-05-07T01:13:34;94908.34;;;10.54;100.00
3178;BME280;38141;42.666;23.344;2023-05-07T01:16:02;94913.91;;;10.75;100.00
3178;BME280;38141;42.666;23.344;2023-05-07T01:18:30;94906.13;;;10.66;100.00
3178;BME280;38141;42.666;23.344;2023-05-07T01:20:58;94913.47;;;10.66;100.00
3178;BME280;38141;42.666;23.344;2023-05-07T01:23:27;94912.28;;;10.63;100.00
3178;BME280;38141;42.666;23.344;2023-05-07T01:25:54;94895.66;;;10.58;100.00
3178;BME280;38141;42.666;23.344;2023-05-07T01:28:21;94900.31;;;10.64;100.00
3178;BME280;38141;42.666;23.344;2023-05-07T01:30:52;94906.59;;;10.76;100.00
3178;BME280;38141;42.666;23.344;2023-05-07T01:33:21;94883.72;;;10.66;100.00
3178;BME280;38141;42.666;23.344;2023-05-07T01:35:50;94894.22;;;10.82;100.00
3178;BME280;38141;42.666;23.344;2023-05-07T01:38:18;94898.50;;;10.86;100.00
3178;BME280;38141;42.666;23.344;2023-05-07T01:40:46;94897.00;;;10.89;100.00
3178;BME280;38141;42.666;23.344;2023-05-07T01:43:13;94887.28;;;10.84;100.00
3178;BME280;38141;42.666;23.344;2023-05-07T01:45:41;94869.88;;;10.82;100.00
3178;BME280;38141;42.666;23.344;2023-05-07T01:48:10;94844.31;;;10.72;100.00
3178;BME280;38141;42.666;23.344;2023-05-07T01:50:37;94850.56;;;10.80;100.00
3178;BME280;38141;42.666;23.344;2023-05-07T01:53:05;94853.69;;;10.89;100.00
3178;BME280;38141;42.666;23.344;2023-05-07T01:55:31;94872.72;;;11.10;100.00
3178;BME280;38141;42.666;23.344;2023-05-07T01:57:59;94861.03;;;10.88;100.00
3178;BME280;38141;42.666;23.344;2023-05-07T02:00:26;94866.88;;;10.97;100.00
3178;BME280;38141;42.666;23.344;2023-05-07T02:02:53;94863.75;;;10.92;100.00
3178;BME280;38141;42.666;23.344;2023-05-07T02:05:20;94866.44;;;10.88;100.00
3178;BME280;38141;42.666;23.344;2023-05-07T02:07:46;94863.38;;;10.93;100.00
3178;BME280;38141;42.666;23.344;2023-05-07T02:10:13;94866.84;;;10.94;100.00
3178;BME280;38141;42.666;23.344;2023-05-07T02:12:40;94855.63;;;10.92;100.00
3178;BME280;38141;42.666;23.344;2023-05-07T02:15:10;94846.69;;;10.81;100.00
3178;BME280;38141;42.666;23.344;2023-05-07T02:17:39;94835.09;;;10.80;100.00
3178;BME280;38141;42.666;23.344;2023-05-07T02:20:24;94851.31;;;10.80;100.00
3178;BME280;38141;42.666;23.344;2023-05-07T02:22:50;94853.28;;;10.87;100.00
3178;BME280;38141;42.666;23.344;2023-05-07T02:25:17;94862.94;;;10.88;100.00
3178;BME280;38141;42.666;23.344;2023-05-07T02:27:44;94840.09;;;10.78;100.00
3178;BME280;38141;42.666;23.344;2023-05-07T02:30:13;94850.56;;;10.80;100.00
3178;BME280;38141;42.666;23.344;2023-05-07T02:32:40;94857.53;;;10.88;100.00
3178;BME280;38141;42.666;23.344;2023-05-07T02:35:07;94848.66;;;10.91;100.00
3178;BME280;38141;42.666;23.344;2023-05-07T02:37:34;94837.75;;;10.77;100.00
3178;BME280;38141;42.666;23.344;2023-05-07T02:40:01;94851.72;;;10.82;100.00
3178;BME280;38141;42.666;23.344;2023-05-07T02:42:29;94857.53;;;10.84;100.00
3178;BME280;38141;42.666;23.344;2023-05-07T02:44:56;94855.97;;;10.80;100.00
3178;BME280;38141;42.666;23.344;2023-05-07T02:47:24;94837.72;;;10.69;100.00
3178;BME280;38141;42.666;23.344;2023-05-07T02:49:52;94851.69;;;10.75;100.00
3178;BME280;38141;42.666;23.344;2023-05-07T02:52:19;94859.75;;;10.68;100.00
3178;BME280;38141;42.666;23.344;2023-05-07T02:54:45;94863.22;;;10.68;100.00
3178;BME280;38141;42.666;23.344;2023-05-07T02:57:12;94862.50;;;10.75;100.00
3178;BME280;38141;42.666;23.344;2023-05-07T02:59:39;94866.03;;;10.86;100.00
3178;BME280;38141;42.666;23.344;2023-05-07T03:02:05;94863.31;;;10.83;100.00
3178;BME280;38141;42.666;23.344;2023-05-07T03:04:34;94875.38;;;10.99;100.00
3178;BME280;38141;42.666;23.344;2023-05-07T03:07:00;94869.63;;;11.11;100.00
3178;BME280;38141;42.666;23.344;2023-05-07T03:09:27;94882.41;;;11.11;100.00
3178;BME280;38141;42.666;23.344;2023-05-07T03:11:54;94878.47;;;10.98;100.00
3178;BME280;38141;42.666;23.344;2023-05-07T03:14:20;94882.31;;;10.97;100.00
3178;BME280;38141;42.666;23.344;2023-05-07T03:16:48;94852.13;;;10.88;100.00
3178;BME280;38141;42.666;23.344;2023-05-07T03:19:15;94882.34;;;11.00;100.00
3178;BME280;38141;42.666;23.344;2023-05-07T03:21:43;94873.44;;;11.00;100.00
3178;BME280;38141;42.666;23.344;2023-05-07T03:24:10;94890.47;;;11.04;100.00
3178;BME280;38141;42.666;23.344;2023-05-07T03:26:37;94881.97;;;11.02;100.00
3178;BME280;38141;42.666;23.344;2023-05-07T03:29:04;94893.53;;;10.95;100.00
3178;BME280;38141;42.666;23.344;2023-05-07T03:31:30;94872.56;;;10.78;100.00
3178;BME280;38141;42.666;23.344;2023-05-07T03:33:57;94888.88;;;10.96;100.00
3178;BME280;38141;42.666;23.344;2023-05-07T03:36:24;94856.75;;;10.84;100.00
3178;BME280;38141;42.666;23.344;2023-05-07T03:38:53;94883.13;;;11.01;100.00
3178;BME280;38141;42.666;23.344;2023-05-07T03:41:20;94885.53;;;11.20;100.00
3178;BME280;38141;42.666;23.344;2023-05-07T03:43:47;94901.03;;;11.30;100.00
3178;BME280;38141;42.666;23.344;2023-05-07T03:46:13;94896.00;;;11.36;100.00
3178;BME280;38141;42.666;23.344;2023-05-07T03:48:40;94900.69;;;11.46;100.00
3178;BME280;38141;42.666;23.344;2023-05-07T03:51:07;94904.22;;;11.60;100.00
3178;BME280;38141;42.666;23.344;2023-05-07T03:53:34;94901.94;;;11.70;100.00
3178;BME280;38141;42.666;23.344;2023-05-07T03:56:02;94893.72;;;11.45;100.00
3178;BME280;38141;42.666;23.344;2023-05-07T03:58:29;94902.31;;;11.68;100.00
3178;BME280;38141;42.666;23.344;2023-05-07T04:00:55;94913.91;;;11.65;100.00
3178;BME280;38141;42.666;23.344;2023-05-07T04:03:22;94901.53;;;11.57;100.00
3178;BME280;38141;42.666;23.344;2023-05-07T04:05:49;94917.78;;;11.68;100.00
3178;BME280;38141;42.666;23.344;2023-05-07T04:08:15;94925.50;;;11.48;100.00
3178;BME280;38141;42.666;23.344;2023-05-07T04:10:42;94926.38;;;11.80;100.00
3178;BME280;38141;42.666;23.344;2023-05-07T04:13:10;94931.03;;;11.80;100.00
3178;BME280;38141;42.666;23.344;2023-05-07T04:15:37;94928.00;;;12.17;100.00
3178;BME280;38141;42.666;23.344;2023-05-07T04:18:04;94936.50;;;12.36;100.00
3178;BME280;38141;42.666;23.344;2023-05-07T04:20:30;94932.25;;;12.42;100.00
3178;BME280;38141;42.666;23.344;2023-05-07T04:23:01;94951.97;;;13.00;100.00
3178;BME280;38141;42.666;23.344;2023-05-07T04:25:28;94958.16;;;13.18;100.00
3178;BME280;38141;42.666;23.344;2023-05-07T04:27:55;94949.56;;;13.48;100.00
3178;BME280;38141;42.666;23.344;2023-05-07T04:30:23;94946.63;;;13.94;100.00
3178;BME280;38141;42.666;23.344;2023-05-07T04:32:50;94946.44;;;14.25;100.00
3178;BME280;38141;42.666;23.344;2023-05-07T04:35:16;94949.84;;;14.88;100.00
3178;BME280;38141;42.666;23.344;2023-05-07T04:37:43;94955.53;;;15.42;100.00
3178;BME280;38141;42.666;23.344;2023-05-07T04:40:10;94953.28;;;15.67;100.00
3178;BME280;38141;42.666;23.344;2023-05-07T04:42:37;94960.88;;;16.13;95.48
3178;BME280;38141;42.666;23.344;2023-05-07T04:45:05;94967.19;;;16.37;92.69
3178;BME280;38141;42.666;23.344;2023-05-07T04:47:33;94966.84;;;16.62;88.87
3178;BME280;38141;42.666;23.344;2023-05-07T04:50:00;94963.75;;;17.49;80.48
3178;BME280;38141;42.666;23.344;2023-05-07T04:52:26;94963.75;;;18.80;69.80
3178;BME280;38141;42.666;23.344;2023-05-07T04:54:53;94963.50;;;19.52;64.10
3178;BME280;38141;42.666;23.344;2023-05-07T04:57:20;94938.16;;;20.02;59.29
3178;BME280;38141;42.666;23.344;2023-05-07T04:59:47;94966.16;;;20.89;56.38
3178;BME280;38141;42.666;23.344;2023-05-07T05:02:14;94964.47;;;22.07;52.43
3178;BME280;38141;42.666;23.344;2023-05-07T05:04:42;94966.44;;;22.69;49.94
3178;BME280;38141;42.666;23.344;2023-05-07T05:07:09;94966.28;;;22.63;49.30
3178;BME280;38141;42.666;23.344;2023-05-07T05:09:36;94953.66;;;24.99;45.67
3178;BME280;38141;42.666;23.344;2023-05-07T05:12:03;94963.69;;;24.54;44.32
3178;BME280;38141;42.666;23.344;2023-05-07T05:14:32;94946.47;;;24.50;44.76
3178;BME280;38141;42.666;23.344;2023-05-07T05:16:59;94951.38;;;24.97;44.01
3178;BME280;38141;42.666;23.344;2023-05-07T05:19:26;94954.75;;;26.55;41.11
3178;BME280;38141;42.666;23.344;2023-05-07T05:21:54;94966.16;;;27.41;38.82
3178;BME280;38141;42.666;23.344;2023-05-07T05:24:20;94951.03;;;27.08;39.93
3178;BME280;38141;42.666;23.344;2023-05-07T05:26:47;94960.59;;;27.41;39.40
3178;BME280;38141;42.666;23.344;2023-05-07T05:29:14;94961.41;;;26.19;40.73
3178;BME280;38141;42.666;23.344;2023-05-07T05:31:41;94873.22;;;25.79;40.68
3178;BME280;38141;42.666;23.344;2023-05-07T05:34:08;94945.63;;;28.20;37.83
3178;BME280;38141;42.666;23.344;2023-05-07T05:36:34;94955.34;;;28.30;37.60
3178;BME280;38141;42.666;23.344;2023-05-07T05:39:02;94952.94;;;30.08;34.59
3178;BME280;38141;42.666;23.344;2023-05-07T05:41:30;94980.81;;;28.23;37.02
3178;BME280;38141;42.666;23.344;2023-05-07T05:43:56;94975.09;;;28.89;36.74
3178;BME280;38141;42.666;23.344;2023-05-07T05:46:23;94966.22;;;29.65;35.40
3178;BME280;38141;42.666;23.344;2023-05-07T05:48:50;94972.28;;;31.50;32.84
3178;BME280;38141;42.666;23.344;2023-05-07T05:51:17;94961.69;;;30.82;33.17
3178;BME280;38141;42.666;23.344;2023-05-07T05:53:43;94945.41;;;30.41;33.69
3178;BME280;38141;42.666;23.344;2023-05-07T05:56:11;94966.47;;;31.43;33.42
3178;BME280;38141;42.666;23.344;2023-05-07T05:58:38;94963.53;;;33.10;31.45
3178;BME280;38141;42.666;23.344;2023-05-07T06:01:05;94968.56;;;32.87;30.79
3178;BME280;38141;42.666;23.344;2023-05-07T06:03:32;94971.56;;;32.07;31.71
3178;BME280;38141;42.666;23.344;2023-05-07T06:05:59;94960.97;;;33.66;29.75
3178;BME280;38141;42.666;23.344;2023-05-07T06:08:29;94970.00;;;33.29;29.78
3178;BME280;38141;42.666;23.344;2023-05-07T06:10:56;94960.47;;;33.86;28.63
3178;BME280;38141;42.666;23.344;2023-05-07T06:13:24;94978.44;;;33.29;29.30
3178;BME280;38141;42.666;23.344;2023-05-07T06:15:50;94977.28;;;34.11;28.85
3178;BME280;38141;42.666;23.344;2023-05-07T06:18:17;94971.53;;;33.79;29.36
3178;BME280;38141;42.666;23.344;2023-05-07T06:20:44;94963.69;;;33.72;28.79
3178;BME280;38141;42.666;23.344;2023-05-07T06:23:11;94924.75;;;33.14;29.74
3178;BME280;38141;42.666;23.344;2023-05-07T06:25:37;94965.56;;;33.09;30.22
3178;BME280;38141;42.666;23.344;2023-05-07T06:28:04;94961.69;;;33.91;28.79
3178;BME280;38141;42.666;23.344;2023-05-07T06:30:32;94938.25;;;33.88;29.20
3178;BME280;38141;42.666;23.344;2023-05-07T06:32:59;94954.91;;;34.43;29.08
3178;BME280;38141;42.666;23.344;2023-05-07T06:35:26;94945.56;;;32.94;29.83
3178;BME280;38141;42.666;23.344;2023-05-07T06:37:53;94958.53;;;34.19;29.15
3178;BME280;38141;42.666;23.344;2023-05-07T06:40:22;94945.72;;;32.37;30.40
3178;BME280;38141;42.666;23.344;2023-05-07T06:42:51;94942.81;;;34.48;28.32
3178;BME280;38141;42.666;23.344;2023-05-07T06:45:19;94947.31;;;33.76;29.05
3178;BME280;38141;42.666;23.344;2023-05-07T06:47:47;94918.34;;;33.43;29.69
3178;BME280;38141;42.666;23.344;2023-05-07T06:50:14;94932.97;;;33.06;29.89
3178;BME280;38141;42.666;23.344;2023-05-07T06:52:42;94934.78;;;31.01;31.70
3178;BME280;38141;42.666;23.344;2023-05-07T06:55:08;94935.22;;;31.39;32.86
3178;BME280;38141;42.666;23.344;2023-05-07T06:57:36;94928.63;;;31.25;31.85
3178;BME280;38141;42.666;23.344;2023-05-07T07:00:04;94924.38;;;30.79;33.18
3178;BME280;38141;42.666;23.344;2023-05-07T07:02:32;94912.56;;;32.46;30.54
3178;BME280;38141;42.666;23.344;2023-05-07T07:05:00;94929.13;;;30.23;33.48
3178;BME280;38141;42.666;23.344;2023-05-07T07:07:27;94915.72;;;31.05;32.36
3178;BME280;38141;42.666;23.344;2023-05-07T07:09:54;94928.94;;;30.66;33.33
3178;BME280;38141;42.666;23.344;2023-05-07T07:12:20;94932.84;;;31.65;32.27
3178;BME280;38141;42.666;23.344;2023-05-07T07:14:48;94930.91;;;30.37;33.88
3178;BME280;38141;42.666;23.344;2023-05-07T07:17:14;94928.00;;;28.08;37.28
3178;BME280;38141;42.666;23.344;2023-05-07T07:19:41;94924.34;;;28.74;36.01
3178;BME280;38141;42.666;23.344;2023-05-07T07:22:09;94920.81;;;28.16;37.10
3178;BME280;38141;42.666;23.344;2023-05-07T07:24:37;94918.13;;;28.27;37.08
3178;BME280;38141;42.666;23.344;2023-05-07T07:27:04;94915.72;;;29.57;35.99
3178;BME280;38141;42.666;23.344;2023-05-07T07:29:31;94923.03;;;28.38;36.53
3178;BME280;38141;42.666;23.344;2023-05-07T07:32:07;94910.84;;;28.36;36.70
3178;BME280;38141;42.666;23.344;2023-05-07T07:34:34;94908.25;;;27.40;38.83
3178;BME280;38141;42.666;23.344;2023-05-07T07:37:01;94908.22;;;27.34;38.93
3178;BME280;38141;42.666;23.344;2023-05-07T07:39:32;94911.19;;;27.31;39.33
3178;BME280;38141;42.666;23.344;2023-05-07T07:41:58;94920.34;;;28.23;38.08
3178;BME280;38141;42.666;23.344;2023-05-07T07:44:25;94926.31;;;26.75;40.11
3178;BME280;38141;42.666;23.344;2023-05-07T07:46:58;94924.28;;;26.17;41.30
3178;BME280;38141;42.666;23.344;2023-05-07T07:49:26;94922.88;;;24.31;43.99
3178;BME280;38141;42.666;23.344;2023-05-07T07:51:52;94918.91;;;25.21;44.26
3178;BME280;38141;42.666;23.344;2023-05-07T07:54:20;94929.75;;;25.96;42.05
3178;BME280;38141;42.666;23.344;2023-05-07T07:56:48;94922.28;;;26.17;41.50
3178;BME280;38141;42.666;23.344;2023-05-07T07:59:14;94934.50;;;26.84;41.02
3178;BME280;38141;42.666;23.344;2023-05-07T08:01:44;94918.22;;;26.27;40.89
3178;BME280;38141;42.666;23.344;2023-05-07T08:04:10;94898.56;;;25.87;42.22
3178;BME280;38141;42.666;23.344;2023-05-07T08:06:37;94918.25;;;25.50;42.23
3178;BME280;38141;42.666;23.344;2023-05-07T08:09:04;94884.94;;;24.97;43.35
3178;BME280;38141;42.666;23.344;2023-05-07T08:11:31;94917.22;;;25.00;43.01
3178;BME280;38141;42.666;23.344;2023-05-07T08:13:59;94917.34;;;24.73;44.18
3178;BME280;38141;42.666;23.344;2023-05-07T08:16:26;94906.19;;;25.39;42.42
3178;BME280;38141;42.666;23.344;2023-05-07T08:18:54;94904.78;;;25.82;42.18
3178;BME280;38141;42.666;23.344;2023-05-07T08:21:21;94897.56;;;25.60;42.23
3178;BME280;38141;42.666;23.344;2023-05-07T08:23:48;94916.13;;;25.69;41.49
3178;BME280;38141;42.666;23.344;2023-05-07T08:26:15;94913.28;;;25.78;41.11
3178;BME280;38141;42.666;23.344;2023-05-07T08:28:42;94920.50;;;26.43;40.99
3178;BME280;38141;42.666;23.344;2023-05-07T08:31:10;94912.16;;;26.14;40.29
3178;BME280;38141;42.666;23.344;2023-05-07T08:33:37;94905.41;;;26.79;39.89
3178;BME280;38141;42.666;23.344;2023-05-07T08:36:04;94912.28;;;27.19;38.96
3178;BME280;38141;42.666;23.344;2023-05-07T08:38:31;94894.06;;;28.24;37.55
3178;BME280;38141;42.666;23.344;2023-05-07T08:40:58;94903.94;;;28.25;37.07
3178;BME280;38141;42.666;23.344;2023-05-07T08:43:26;94878.44;;;29.01;35.67
3178;BME280;38141;42.666;23.344;2023-05-07T08:45:54;94885.63;;;29.78;33.62
3178;BME280;38141;42.666;23.344;2023-05-07T08:48:25;94862.09;;;30.12;33.69
3178;BME280;38141;42.666;23.344;2023-05-07T08:50:52;94865.75;;;29.53;34.74
3178;BME280;38141;42.666;23.344;2023-05-07T08:53:20;94888.97;;;27.51;36.25
3178;BME280;38141;42.666;23.344;2023-05-07T08:55:47;94889.63;;;29.12;35.47
3178;BME280;38141;42.666;23.344;2023-05-07T08:58:14;94887.50;;;29.38;34.41
3178;BME280;38141;42.666;23.344;2023-05-07T09:00:41;94886.69;;;28.84;34.51
3178;BME280;38141;42.666;23.344;2023-05-07T09:03:08;94884.47;;;30.84;32.45
3178;BME280;38141;42.666;23.344;2023-05-07T09:05:41;94868.50;;;32.11;30.35
3178;BME280;38141;42.666;23.344;2023-05-07T09:08:09;94878.94;;;32.76;30.15
3178;BME280;38141;42.666;23.344;2023-05-07T09:10:36;94871.72;;;31.00;31.70
3178;BME280;38141;42.666;23.344;2023-05-07T09:13:03;94839.78;;;30.40;31.44
3178;BME280;38141;42.666;23.344;2023-05-07T09:15:30;94870.91;;;32.32;30.52
3178;BME280;38141;42.666;23.344;2023-05-07T09:17:59;94867.69;;;32.82;28.96
3178;BME280;38141;42.666;23.344;2023-05-07T09:20:27;94813.59;;;34.87;26.80
3178;BME280;38141;42.666;23.344;2023-05-07T09:22:57;94860.25;;;35.88;26.10
3178;BME280;38141;42.666;23.344;2023-05-07T09:25:34;94869.22;;;35.86;25.68
3178;BME280;38141;42.666;23.344;2023-05-07T09:28:02;94868.66;;;36.01;26.49
3178;BME280;38141;42.666;23.344;2023-05-07T09:30:29;94858.84;;;35.81;25.83
3178;BME280;38141;42.666;23.344;2023-05-07T09:32:57;94850.94;;;35.14;25.97
3178;BME280;38141;42.666;23.344;2023-05-07T09:35:24;94863.75;;;35.67;26.33
3178;BME280;38141;42.666;23.344;2023-05-07T09:37:52;94853.63;;;36.32;25.18
3178;BME280;38141;42.666;23.344;2023-05-07T09:40:22;94854.84;;;37.35;24.22
3178;BME280;38141;42.666;23.344;2023-05-07T09:42:51;94845.75;;;37.01;24.18
3178;BME280;38141;42.666;23.344;2023-05-07T09:45:21;94854.19;;;36.51;24.85
3178;BME280;38141;42.666;23.344;2023-05-07T09:47:49;94847.44;;;36.34;24.35
3178;BME280;38141;42.666;23.344;2023-05-07T09:50:22;94836.16;;;37.24;23.91
3178;BME280;38141;42.666;23.344;2023-05-07T09:52:52;94839.81;;;37.68;23.21
3178;BME280;38141;42.666;23.344;2023-05-07T09:55:19;94849.78;;;35.22;25.05
3178;BME280;38141;42.666;23.344;2023-05-07T09:57:50;94844.97;;;34.78;25.03
3178;BME280;38141;42.666;23.344;2023-05-07T10:00:18;94838.28;;;34.17;25.95
3178;BME280;38141;42.666;23.344;2023-05-07T10:02:47;94843.47;;;33.33;26.71
3178;BME280;38141;42.666;23.344;2023-05-07T10:05:15;94839.28;;;32.01;27.75
3178;BME280;38141;42.666;23.344;2023-05-07T10:07:42;94835.63;;;32.17;27.89
3178;BME280;38141;42.666;23.344;2023-05-07T10:10:10;94836.19;;;32.05;27.54
3178;BME280;38141;42.666;23.344;2023-05-07T10:12:37;94837.44;;;31.05;28.57
3178;BME280;38141;42.666;23.344;2023-05-07T10:15:08;94826.69;;;32.49;26.75
3178;BME280;38141;42.666;23.344;2023-05-07T10:17:36;94811.97;;;32.73;26.49
3178;BME280;38141;42.666;23.344;2023-05-07T10:20:04;94828.22;;;32.80;26.15
3178;BME280;38141;42.666;23.344;2023-05-07T10:22:33;94816.84;;;32.42;26.39
3178;BME280;38141;42.666;23.344;2023-05-07T10:25:06;94820.16;;;31.70;26.67
3178;BME280;38141;42.666;23.344;2023-05-07T10:27:36;94806.84;;;31.76;27.21
3178;BME280;38141;42.666;23.344;2023-05-07T10:30:14;94820.53;;;30.48;28.76
3178;BME280;38141;42.666;23.344;2023-05-07T10:32:46;94798.94;;;30.15;29.10
3178;BME280;38141;42.666;23.344;2023-05-07T10:35:17;94804.66;;;30.95;28.93
3178;BME280;38141;42.666;23.344;2023-05-07T10:37:45;94804.16;;;31.54;28.87
3178;BME280;38141;42.666;23.344;2023-05-07T10:40:12;94794.38;;;30.06;29.48
3178;BME280;38141;42.666;23.344;2023-05-07T10:42:53;94798.59;;;29.57;29.73
3178;BME280;38141;42.666;23.344;2023-05-07T10:45:22;94801.16;;;29.77;29.69
3178;BME280;38141;42.666;23.344;2023-05-07T10:48:09;94792.97;;;30.96;28.34
3178;BME280;38141;42.666;23.344;2023-05-07T10:50:37;94792.66;;;31.16;27.44
3178;BME280;38141;42.666;23.344;2023-05-07T10:53:24;94791.78;;;30.64;28.13
3178;BME280;38141;42.666;23.344;2023-05-07T10:58:50;94784.94;;;30.42;28.15
3178;BME280;38141;42.666;23.344;2023-05-07T11:01:50;94787.19;;;28.90;30.21
3178;BME280;38141;42.666;23.344;2023-05-07T11:04:17;94784.56;;;28.33;30.46
3178;BME280;38141;42.666;23.344;2023-05-07T11:07:21;94792.78;;;28.96;29.83
3178;BME280;38141;42.666;23.344;2023-05-07T11:10:03;94782.75;;;28.24;30.68
3178;BME280;38141;42.666;23.344;2023-05-07T11:12:47;94760.56;;;27.73;31.44
3178;BME280;38141;42.666;23.344;2023-05-07T11:15:16;94781.81;;;28.39;30.75
3178;BME280;38141;42.666;23.344;2023-05-07T11:18:01;94773.81;;;28.15;30.79
3178;BME280;38141;42.666;23.344;2023-05-07T11:20:47;94770.22;;;27.52;31.53
3178;BME280;38141;42.666;23.344;2023-05-07T11:26:18;94769.00;;;27.12;31.79
3178;BME280;38141;42.666;23.344;2023-05-07T11:28:45;94762.75;;;26.57;32.63
3178;BME280;38141;42.666;23.344;2023-05-07T11:31:12;94763.97;;;26.90;32.71
3178;BME280;38141;42.666;23.344;2023-05-07T11:33:43;94764.91;;;27.54;32.11
3178;BME280;38141;42.666;23.344;2023-05-07T11:36:10;94752.38;;;27.38;31.76
3178;BME280;38141;42.666;23.344;2023-05-07T11:38:38;94747.78;;;27.35;31.97
3178;BME280;38141;42.666;23.344;2023-05-07T11:41:05;94756.19;;;26.94;32.33
3178;BME280;38141;42.666;23.344;2023-05-07T11:43:32;94759.09;;;27.06;32.10
3178;BME280;38141;42.666;23.344;2023-05-07T11:46:08;94746.50;;;27.56;31.01
3178;BME280;38141;42.666;23.344;2023-05-07T11:48:36;94743.44;;;27.80;30.56
3178;BME280;38141;42.666;23.344;2023-05-07T11:51:05;94745.75;;;27.56;30.91
3178;BME280;38141;42.666;23.344;2023-05-07T11:53:38;94758.06;;;27.75;31.14
3178;BME280;38141;42.666;23.344;2023-05-07T11:56:08;94736.13;;;27.05;31.83
3178;BME280;38141;42.666;23.344;2023-05-07T11:58:36;94758.59;;;27.79;31.25
3178;BME280;38141;42.666;23.344;2023-05-07T12:01:03;94753.63;;;27.89;30.81
3178;BME280;38141;42.666;23.344;2023-05-07T12:03:30;94736.00;;;27.46;31.96
3178;BME280;38141;42.666;23.344;2023-05-07T12:05:57;94732.03;;;27.78;31.02
3178;BME280;38141;42.666;23.344;2023-05-07T12:08:25;94740.16;;;27.81;31.07
3178;BME280;38141;42.666;23.344;2023-05-07T12:10:53;94743.66;;;26.44;32.72
3178;BME280;38141;42.666;23.344;2023-05-07T12:13:21;94730.56;;;27.05;31.70
3178;BME280;38141;42.666;23.344;2023-05-07T12:15:50;94733.31;;;26.09;33.06
3178;BME280;38141;42.666;23.344;2023-05-07T12:18:17;94725.28;;;26.11;32.76
3178;BME280;38141;42.666;23.344;2023-05-07T12:20:45;94730.63;;;25.80;33.68
3178;BME280;38141;42.666;23.344;2023-05-07T12:23:12;94725.75;;;26.25;33.51
3178;BME280;38141;42.666;23.344;2023-05-07T12:25:41;94712.25;;;26.52;32.13
3178;BME280;38141;42.666;23.344;2023-05-07T12:28:13;94720.00;;;26.48;32.77
3178;BME280;38141;42.666;23.344;2023-05-07T12:30:40;94710.84;;;26.42;32.65
3178;BME280;38141;42.666;23.344;2023-05-07T12:33:08;94707.06;;;25.90;33.34
3178;BME280;38141;42.666;23.344;2023-05-07T12:35:37;94711.00;;;25.84;33.38
3178;BME280;38141;42.666;23.344;2023-05-07T12:38:07;94698.50;;;26.23;32.76
3178;BME280;38141;42.666;23.344;2023-05-07T12:40:38;94700.66;;;26.34;32.15
3178;BME280;38141;42.666;23.344;2023-05-07T12:43:06;94692.25;;;26.28;33.30
3178;BME280;38141;42.666;23.344;2023-05-07T12:45:37;94688.84;;;26.59;31.86
3178;BME280;38141;42.666;23.344;2023-05-07T12:48:05;94666.69;;;26.39;30.79
3178;BME280;38141;42.666;23.344;2023-05-07T12:50:32;94678.88;;;26.47;31.50
3178;BME280;38141;42.666;23.344;2023-05-07T12:52:59;94689.06;;;26.55;31.57
3178;BME280;38141;42.666;23.344;2023-05-07T12:55:28;94681.56;;;26.41;31.42
3178;BME280;38141;42.666;23.344;2023-05-07T12:57:55;94655.53;;;26.19;31.52
3178;BME280;38141;42.666;23.344;2023-05-07T13:00:38;94660.53;;;26.35;31.46
3178;BME280;38141;42.666;23.344;2023-05-07T13:03:06;94669.06;;;26.72;31.39
3178;BME280;38141;42.666;23.344;2023-05-07T13:05:32;94669.03;;;26.46;31.57
3178;BME280;38141;42.666;23.344;2023-05-07T13:07:59;94667.59;;;26.16;31.63
3178;BME280;38141;42.666;23.344;2023-05-07T13:10:28;94661.75;;;25.93;32.39